Portada
METAR-TAF:

METAR-TAF

Aeroports :

Lampang, Tailàndia

latitud: 18-17N, longitud: 099-31E, altitud: 241 m

Observació

L'informe es va fer fa 2 hores i 46 minuts, a les 12:00 UTC
Vent 7 kt del Sud-Oest, variant entre Sud i Oest/Sud-Oest
Temperatura 32°C
Humitat 49%
Pressió 1004 hPa
Visibilitat 10 km o més
Escasses núvols a una alçada de 2500 ft
Núvols disperses a una alçada de 10000 ft

METAR: VTCL 241200Z 22007KT 190V250 9999 FEW025 SCT100 32/20 Q1004 NOSIG

Hora: 21:46 (14:46 UTC)

Pronòstic

L'informe es va fer fa 3 hores i 46 minuts, a les 11:00 UTC
Pronòstic vàlid del 24 a les 12 UTC al 25 a les 12 UTC
Vent 5 kt del Oest/Sud-Oest
Visibilitat 10 km o més
Núvols disperses a una alçada de 2500 ft

TAF: VTCL 241100Z 2412/2512 24005KT 9999 SCT025

Observacions i pronòstics meteorològics de més de 4000 aeroports (METAR i TAF).

Les estacions disponibles són els punts grocs i vermells al mapa.

Posi el ratolí al punt desitjat per veure el nom de l'estació.

Feu clic per veure les observacions i els pronòstics meteorològics.

Per canviar el mapa: feu clic els botons verds amb una creu de color negre per apropar; al botó verd amb un guió per allunyar la imatge; o en les fletxes verdes per a mapes adjacents.


METAR-TAF: